createdAt,value
2023-05-09T00:03:40.126Z,12.60
2023-05-09T00:07:41.701Z,12.57
2023-05-09T00:11:40.292Z,12.61
2023-05-09T00:15:42.128Z,12.66
2023-05-09T00:19:40.377Z,12.60
2023-05-09T00:23:41.607Z,12.65
2023-05-09T00:27:40.335Z,12.56
2023-05-09T00:31:42.220Z,12.53
2023-05-09T00:35:40.249Z,12.50
2023-05-09T00:39:41.743Z,12.53
2023-05-09T00:43:40.320Z,12.58
2023-05-09T00:47:41.925Z,12.62
2023-05-09T00:51:40.391Z,12.58
2023-05-09T00:55:41.724Z,12.48
2023-05-09T00:59:40.244Z,12.46
2023-05-09T01:03:41.822Z,12.47
2023-05-09T01:07:39.353Z,12.46
2023-05-09T01:11:38.259Z,12.47
2023-05-09T01:15:33.660Z,12.36
2023-05-09T01:19:33.111Z,12.16
2023-05-09T01:23:28.563Z,11.86
2023-05-09T01:27:28.099Z,11.72
2023-05-09T01:31:13.238Z,11.41
2023-05-09T01:34:58.622Z,11.12
2023-05-09T01:38:43.839Z,10.91
2023-05-09T01:42:28.738Z,10.81
2023-05-09T01:46:13.796Z,10.80
2023-05-09T01:49:58.890Z,10.74
2023-05-09T01:53:43.819Z,10.66
2023-05-09T01:57:28.686Z,10.54
2023-05-09T02:01:20.998Z,10.39
2023-05-09T02:05:18.426Z,10.18
2023-05-09T02:09:13.519Z,10.00
2023-05-09T02:13:13.422Z,9.99
2023-05-09T02:17:08.482Z,9.91
2023-05-09T02:21:07.745Z,9.88
2023-05-09T02:25:03.560Z,9.75
2023-05-09T02:29:02.573Z,9.83
2023-05-09T02:32:57.495Z,9.86
2023-05-09T02:36:54.497Z,9.79
2023-05-09T02:40:39.609Z,9.71
2023-05-09T02:44:24.432Z,9.73
2023-05-09T02:48:09.795Z,9.76
2023-05-09T02:51:54.980Z,9.68
2023-05-09T02:55:40.085Z,9.85
2023-05-09T02:59:25.169Z,9.96
2023-05-09T03:03:11.036Z,10.04
2023-05-09T03:07:15.394Z,10.14
2023-05-09T03:11:17.088Z,10.17
2023-05-09T03:15:17.445Z,10.25
2023-05-09T03:19:20.487Z,10.44
2023-05-09T03:23:18.580Z,10.59
2023-05-09T03:27:20.369Z,10.74
2023-05-09T03:31:18.557Z,10.90
2023-05-09T03:35:20.210Z,11.08
2023-05-09T03:39:18.496Z,11.26
2023-05-09T03:43:21.509Z,11.61
2023-05-09T03:47:19.482Z,11.92
2023-05-09T03:51:21.300Z,12.39
2023-05-09T03:55:20.648Z,12.87
2023-05-09T03:59:22.522Z,13.20
2023-05-09T04:03:21.742Z,13.54
2023-05-09T04:07:24.385Z,13.87
2023-05-09T04:11:23.630Z,14.21
2023-05-09T04:15:24.688Z,14.38
2023-05-09T04:19:23.596Z,14.46
2023-05-09T04:23:25.021Z,14.60
2023-05-09T04:27:24.521Z,14.89
2023-05-09T04:31:27.337Z,15.09
2023-05-09T04:35:25.439Z,15.41
2023-05-09T04:39:27.566Z,15.64
2023-05-09T04:43:34.681Z,15.85
2023-05-09T04:47:36.841Z,15.96
2023-05-09T04:51:35.675Z,16.17
2023-05-09T04:55:37.216Z,16.30
2023-05-09T04:59:35.634Z,16.49
2023-05-09T05:03:36.666Z,16.51
2023-05-09T05:07:35.519Z,16.68
2023-05-09T05:11:37.251Z,16.77
2023-05-09T05:15:34.259Z,16.79
2023-05-09T05:19:26.059Z,16.59
2023-05-09T05:23:19.495Z,16.69
2023-05-09T05:27:18.905Z,17.13
2023-05-09T05:31:15.158Z,17.20
2023-05-09T05:35:15.228Z,17.25
2023-05-09T05:39:11.148Z,17.33
2023-05-09T05:43:10.520Z,17.47
2023-05-09T05:47:06.919Z,17.57
2023-05-09T05:51:06.818Z,17.78
2023-05-09T05:55:03.942Z,18.02
2023-05-09T05:59:01.139Z,18.12
2023-05-09T06:02:46.543Z,18.19
2023-05-09T06:06:37.982Z,18.22
2023-05-09T06:10:23.130Z,18.37
2023-05-09T06:14:08.310Z,18.50
2023-05-09T06:17:53.740Z,18.67
2023-05-09T06:21:40.020Z,18.89
2023-05-09T06:25:24.813Z,19.04
2023-05-09T06:29:10.130Z,19.22
2023-05-09T06:33:01.155Z,19.23
2023-05-09T06:36:46.404Z,19.30
2023-05-09T06:40:31.300Z,19.42
2023-05-09T06:44:16.530Z,19.36
2023-05-09T06:48:01.808Z,19.29
2023-05-09T06:51:53.160Z,19.36
2023-05-09T06:55:44.602Z,19.50
2023-05-09T06:59:35.981Z,19.82
2023-05-09T07:03:29.405Z,19.92
2023-05-09T07:07:33.930Z,20.20
2023-05-09T07:11:35.568Z,20.38
2023-05-09T07:15:42.035Z,20.26
2023-05-09T07:19:45.919Z,20.47
2023-05-09T07:23:43.935Z,20.77
2023-05-09T07:27:45.326Z,21.02
2023-05-09T07:31:44.635Z,21.08
2023-05-09T07:35:46.984Z,21.15
2023-05-09T07:39:44.893Z,21.28
2023-05-09T07:43:46.450Z,21.34
2023-05-09T07:47:44.897Z,21.55
2023-05-09T07:51:46.461Z,21.81
2023-05-09T07:55:43.925Z,21.90
2023-05-09T07:59:45.465Z,21.92
2023-05-09T08:03:44.155Z,21.85
2023-05-09T08:07:45.909Z,21.70
2023-05-09T08:11:44.094Z,21.84
2023-05-09T08:15:45.573Z,21.84
2023-05-09T08:19:44.013Z,22.04
2023-05-09T08:23:45.610Z,22.21
2023-05-09T08:27:44.050Z,22.28
2023-05-09T08:31:43.369Z,22.37
2023-05-09T08:35:42.243Z,22.30
2023-05-09T08:39:43.437Z,22.04
2023-05-09T08:43:42.006Z,21.96
2023-05-09T08:47:43.607Z,22.05
2023-05-09T08:51:42.114Z,21.81
2023-05-09T08:55:43.447Z,21.83
2023-05-09T08:59:42.165Z,21.79
2023-05-09T09:03:43.543Z,21.83
2023-05-09T09:07:41.525Z,21.99
2023-05-09T09:11:40.744Z,22.28
2023-05-09T09:15:32.393Z,22.58
2023-05-09T09:19:32.011Z,22.90
2023-05-09T09:23:27.411Z,23.31
2023-05-09T09:27:27.403Z,23.60
2023-05-09T09:31:23.508Z,23.44
2023-05-09T09:35:23.108Z,23.04
2023-05-09T09:39:18.293Z,22.54
2023-05-09T09:43:11.410Z,22.72
2023-05-09T09:47:07.376Z,23.07
2023-05-09T09:51:00.451Z,23.16
2023-05-09T09:54:56.633Z,23.27
2023-05-09T09:58:56.422Z,23.35
2023-05-09T10:02:52.544Z,23.35
2023-05-09T10:06:49.859Z,23.17
2023-05-09T10:10:45.705Z,23.18
2023-05-09T10:14:45.073Z,23.30
2023-05-09T10:18:40.539Z,23.58
2023-05-09T10:22:39.593Z,23.77
2023-05-09T10:26:35.678Z,23.96
2023-05-09T10:30:34.976Z,24.12
2023-05-09T10:34:30.389Z,24.14
2023-05-09T10:38:29.263Z,23.74
2023-05-09T10:42:24.418Z,23.49
2023-05-09T10:46:23.372Z,23.42
2023-05-09T10:50:21.065Z,23.39
2023-05-09T10:54:20.252Z,23.15
2023-05-09T10:58:15.435Z,23.02
2023-05-09T11:02:08.987Z,22.84
2023-05-09T11:06:13.285Z,22.57
2023-05-09T11:10:14.921Z,22.21
2023-05-09T11:14:13.185Z,22.06
2023-05-09T11:18:15.318Z,22.17
2023-05-09T11:22:14.290Z,22.32
2023-05-09T11:26:15.588Z,22.37
2023-05-09T11:30:15.844Z,22.35
2023-05-09T11:34:13.705Z,22.45
2023-05-09T11:38:15.422Z,22.51
2023-05-09T11:42:13.391Z,22.93
2023-05-09T11:46:14.969Z,23.28
2023-05-09T11:50:13.444Z,23.27
2023-05-09T11:54:14.815Z,23.37
2023-05-09T11:58:14.762Z,23.45
2023-05-09T12:02:16.576Z,23.57
2023-05-09T12:06:15.353Z,23.64
2023-05-09T12:10:17.122Z,23.66
2023-05-09T12:14:15.570Z,23.59
2023-05-09T12:18:17.278Z,23.74
2023-05-09T12:22:15.591Z,23.92
2023-05-09T12:26:16.951Z,23.75
2023-05-09T12:30:15.540Z,24.25
2023-05-09T12:34:17.354Z,23.84
2023-05-09T12:38:14.321Z,23.54
2023-05-09T12:42:15.898Z,23.44
2023-05-09T12:46:14.649Z,23.46
2023-05-09T12:50:16.370Z,23.49
2023-05-09T12:54:14.325Z,23.53
2023-05-09T12:58:15.956Z,23.29
2023-05-09T13:02:14.466Z,23.25
2023-05-09T13:06:16.114Z,23.32
2023-05-09T13:10:13.649Z,23.40
2023-05-09T13:14:14.014Z,23.60
2023-05-09T13:18:11.726Z,23.83
2023-05-09T13:22:12.452Z,23.91
2023-05-09T13:26:09.590Z,24.23
2023-05-09T13:30:12.292Z,24.48
2023-05-09T13:34:10.104Z,24.55
2023-05-09T13:38:10.133Z,24.18
2023-05-09T13:42:07.815Z,24.09
2023-05-09T13:46:07.760Z,24.36
2023-05-09T13:50:05.414Z,24.64
2023-05-09T13:54:05.039Z,24.82
2023-05-09T13:58:02.816Z,25.37
2023-05-09T14:02:03.230Z,25.71
2023-05-09T14:06:00.689Z,25.72
2023-05-09T14:10:11.388Z,25.49
2023-05-09T14:14:10.039Z,24.67
2023-05-09T14:18:10.308Z,23.85
2023-05-09T14:22:07.939Z,23.18
2023-05-09T14:26:08.223Z,22.89
2023-05-09T14:30:05.901Z,22.40
2023-05-09T14:34:06.167Z,22.23
2023-05-09T14:38:03.643Z,22.17
2023-05-09T14:42:03.256Z,22.10
2023-05-09T14:46:00.690Z,21.86
2023-05-09T14:50:00.218Z,21.51
2023-05-09T14:53:58.155Z,21.26
2023-05-09T14:57:58.421Z,21.08
2023-05-09T15:01:55.947Z,21.02
2023-05-09T15:05:53.345Z,20.93
2023-05-09T15:09:50.904Z,20.72
2023-05-09T15:13:44.461Z,20.33
2023-05-09T15:17:40.266Z,20.49
2023-05-09T15:21:36.010Z,20.46
2023-05-09T15:25:33.628Z,20.35
2023-05-09T15:29:32.914Z,20.16
2023-05-09T15:33:29.055Z,20.44
2023-05-09T15:37:28.685Z,20.32
2023-05-09T15:41:23.763Z,20.28
2023-05-09T15:45:23.203Z,20.24
2023-05-09T15:49:18.935Z,20.29
2023-05-09T15:53:17.936Z,20.28
2023-05-09T15:57:12.874Z,20.26
2023-05-09T16:01:11.974Z,20.22
2023-05-09T16:05:08.103Z,20.09
2023-05-09T16:08:53.160Z,19.92
2023-05-09T16:12:38.028Z,19.95
2023-05-09T16:16:23.130Z,19.95
2023-05-09T16:20:08.643Z,19.80
2023-05-09T16:23:53.656Z,19.63
2023-05-09T16:27:38.731Z,19.64
2023-05-09T16:31:23.963Z,19.64
2023-05-09T16:35:17.342Z,19.66
2023-05-09T16:39:13.006Z,19.56
2023-05-09T16:43:12.025Z,19.59
2023-05-09T16:47:07.442Z,19.46
2023-05-09T16:51:06.942Z,19.37
2023-05-09T16:55:02.202Z,19.35
2023-05-09T16:59:01.629Z,19.41
2023-05-09T17:02:57.437Z,19.19
2023-05-09T17:06:56.702Z,19.19
2023-05-09T17:10:49.138Z,19.22
2023-05-09T17:14:34.389Z,19.01
2023-05-09T17:18:33.198Z,19.09
2023-05-09T17:22:22.165Z,19.04
2023-05-09T17:26:13.249Z,18.96
2023-05-09T17:30:04.934Z,18.78
2023-05-09T17:33:56.139Z,18.43
2023-05-09T17:37:55.804Z,18.27
2023-05-09T17:41:51.641Z,18.25
2023-05-09T17:45:51.121Z,18.04
2023-05-09T17:49:47.401Z,18.10
2023-05-09T17:53:46.846Z,17.86
2023-05-09T17:57:42.339Z,18.00
2023-05-09T18:01:41.896Z,17.91
2023-05-09T18:05:37.350Z,17.67
2023-05-09T18:09:22.834Z,17.71
2023-05-09T18:13:08.230Z,17.49
2023-05-09T18:16:53.248Z,17.34
2023-05-09T18:20:38.529Z,17.33
2023-05-09T18:24:24.056Z,17.18
2023-05-09T18:28:09.070Z,17.21
2023-05-09T18:32:01.156Z,17.08
2023-05-09T18:35:56.644Z,17.10
2023-05-09T18:39:56.332Z,16.82
2023-05-09T18:43:52.599Z,16.62
2023-05-09T18:47:51.520Z,16.57
2023-05-09T18:51:47.502Z,16.66
2023-05-09T18:55:46.810Z,16.51
2023-05-09T18:59:42.355Z,16.32
2023-05-09T19:03:33.615Z,16.26
2023-05-09T19:07:18.829Z,16.21
2023-05-09T19:11:03.738Z,16.05
2023-05-09T19:14:48.869Z,15.96
2023-05-09T19:18:33.883Z,15.86
2023-05-09T19:22:25.179Z,15.75
2023-05-09T19:26:17.394Z,15.84
2023-05-09T19:30:08.343Z,15.78
2023-05-09T19:34:07.625Z,15.79
2023-05-09T19:38:06.996Z,15.82
2023-05-09T19:42:02.576Z,15.88
2023-05-09T19:46:01.948Z,15.96
2023-05-09T19:49:57.135Z,16.01
2023-05-09T19:53:56.644Z,16.11
2023-05-09T19:57:41.774Z,16.22
2023-05-09T20:01:26.916Z,16.24
2023-05-09T20:05:12.101Z,16.37
2023-05-09T20:08:57.073Z,16.32
2023-05-09T20:12:42.388Z,16.37
2023-05-09T20:16:27.390Z,16.35
2023-05-09T20:20:14.868Z,16.34
2023-05-09T20:24:06.238Z,16.42
2023-05-09T20:27:57.492Z,16.37
2023-05-09T20:31:49.625Z,16.39
2023-05-09T20:35:48.944Z,16.31
2023-05-09T20:39:44.464Z,16.22
2023-05-09T20:43:44.144Z,16.22
2023-05-09T20:47:43.788Z,16.26
2023-05-09T20:51:39.672Z,16.33
2023-05-09T20:55:38.868Z,16.42
2023-05-09T20:59:34.556Z,16.41
2023-05-09T21:03:34.046Z,16.35
2023-05-09T21:07:19.041Z,16.28
2023-05-09T21:11:04.063Z,16.23
2023-05-09T21:14:49.193Z,16.25
2023-05-09T21:18:34.341Z,16.27
2023-05-09T21:22:19.437Z,16.19
2023-05-09T21:26:04.614Z,16.38
2023-05-09T21:29:49.812Z,16.54
2023-05-09T21:33:40.657Z,16.67
2023-05-09T21:37:33.922Z,16.66
2023-05-09T21:41:33.203Z,16.64
2023-05-09T21:45:28.457Z,16.58
2023-05-09T21:49:27.698Z,16.58
2023-05-09T21:53:23.553Z,16.56
2023-05-09T21:57:22.675Z,16.49
2023-05-09T22:01:18.605Z,16.56
2023-05-09T22:05:18.390Z,16.59
2023-05-09T22:09:13.802Z,16.66
2023-05-09T22:13:13.301Z,16.89
2023-05-09T22:17:08.356Z,17.04
2023-05-09T22:21:07.807Z,16.79
2023-05-09T22:25:03.486Z,17.08
2023-05-09T22:29:02.653Z,16.99
2023-05-09T22:32:58.546Z,16.80
2023-05-09T22:36:57.839Z,16.76
2023-05-09T22:40:53.692Z,16.82
2023-05-09T22:44:53.363Z,16.88
2023-05-09T22:48:49.217Z,16.84
2023-05-09T22:52:48.707Z,16.92
2023-05-09T22:56:44.550Z,16.99
2023-05-09T23:00:43.629Z,16.83
2023-05-09T23:04:39.691Z,16.93
2023-05-09T23:08:43.741Z,17.02
2023-05-09T23:12:45.518Z,17.10
2023-05-09T23:16:43.476Z,17.28
2023-05-09T23:20:45.003Z,17.32
2023-05-09T23:24:43.633Z,17.15
2023-05-09T23:28:45.100Z,16.93
2023-05-09T23:32:43.586Z,16.85
2023-05-09T23:36:45.104Z,16.73
2023-05-09T23:40:43.565Z,16.74
2023-05-09T23:44:44.988Z,16.76
2023-05-09T23:48:43.588Z,16.77
2023-05-09T23:52:45.130Z,16.66
2023-05-09T23:56:43.463Z,16.67
